sensor_id;sensor_type;location;lat;lon;timestamp;P1;durP1;ratioP1;P2;durP2;ratioP2
75774;SDS011;64505;51.458;7.556;2023-10-31T00:00:50;2.45;;;1.50;;
75774;SDS011;64505;51.458;7.556;2023-10-31T00:02:52;4.18;;;1.65;;
75774;SDS011;64505;51.458;7.556;2023-10-31T00:04:53;3.83;;;1.80;;
75774;SDS011;64505;51.458;7.556;2023-10-31T00:06:55;3.65;;;1.50;;
75774;SDS011;64505;51.458;7.556;2023-10-31T00:08:56;2.85;;;1.45;;
75774;SDS011;64505;51.458;7.556;2023-10-31T00:10:58;2.97;;;1.60;;
75774;SDS011;64505;51.458;7.556;2023-10-31T00:12:59;2.15;;;1.60;;
75774;SDS011;64505;51.458;7.556;2023-10-31T00:15:01;2.40;;;1.60;;
75774;SDS011;64505;51.458;7.556;2023-10-31T00:17:02;3.67;;;1.90;;
75774;SDS011;64505;51.458;7.556;2023-10-31T00:19:04;2.92;;;1.90;;
75774;SDS011;64505;51.458;7.556;2023-10-31T00:21:05;3.40;;;1.90;;
75774;SDS011;64505;51.458;7.556;2023-10-31T00:23:07;3.97;;;2.05;;
75774;SDS011;64505;51.458;7.556;2023-10-31T00:25:09;2.97;;;2.35;;
75774;SDS011;64505;51.458;7.556;2023-10-31T00:27:10;3.40;;;2.13;;
75774;SDS011;64505;51.458;7.556;2023-10-31T00:29:11;2.88;;;1.95;;
75774;SDS011;64505;51.458;7.556;2023-10-31T00:31:13;3.67;;;2.20;;
75774;SDS011;64505;51.458;7.556;2023-10-31T00:33:15;2.60;;;1.75;;
75774;SDS011;64505;51.458;7.556;2023-10-31T00:35:17;1.67;;;1.20;;
75774;SDS011;64505;51.458;7.556;2023-10-31T00:37:19;2.85;;;1.77;;
75774;SDS011;64505;51.458;7.556;2023-10-31T00:39:20;2.20;;;1.52;;
75774;SDS011;64505;51.458;7.556;2023-10-31T00:41:23;2.05;;;1.30;;
75774;SDS011;64505;51.458;7.556;2023-10-31T00:43:24;2.45;;;1.52;;
75774;SDS011;64505;51.458;7.556;2023-10-31T00:45:25;2.58;;;1.48;;
75774;SDS011;64505;51.458;7.556;2023-10-31T00:47:27;3.47;;;1.58;;
75774;SDS011;64505;51.458;7.556;2023-10-31T00:49:29;2.78;;;1.90;;
75774;SDS011;64505;51.458;7.556;2023-10-31T00:51:30;3.03;;;1.50;;
75774;SDS011;64505;51.458;7.556;2023-10-31T00:53:32;2.47;;;1.63;;
75774;SDS011;64505;51.458;7.556;2023-10-31T00:55:33;2.40;;;1.60;;
75774;SDS011;64505;51.458;7.556;2023-10-31T00:57:35;3.20;;;1.70;;
75774;SDS011;64505;51.458;7.556;2023-10-31T00:59:36;3.20;;;1.70;;
75774;SDS011;64505;51.458;7.556;2023-10-31T01:01:38;2.00;;;1.50;;
75774;SDS011;64505;51.458;7.556;2023-10-31T01:03:40;1.85;;;1.40;;
75774;SDS011;64505;51.458;7.556;2023-10-31T01:05:41;2.28;;;1.50;;
75774;SDS011;64505;51.458;7.556;2023-10-31T01:07:43;2.30;;;1.50;;
75774;SDS011;64505;51.458;7.556;2023-10-31T01:09:44;2.40;;;1.63;;
75774;SDS011;64505;51.458;7.556;2023-10-31T01:11:46;2.35;;;1.58;;
75774;SDS011;64505;51.458;7.556;2023-10-31T01:13:47;3.53;;;1.67;;
75774;SDS011;64505;51.458;7.556;2023-10-31T01:15:49;1.45;;;1.25;;
75774;SDS011;64505;51.458;7.556;2023-10-31T01:17:50;1.92;;;1.20;;
75774;SDS011;64505;51.458;7.556;2023-10-31T01:19:52;2.17;;;1.65;;
75774;SDS011;64505;51.458;7.556;2023-10-31T01:21:53;2.95;;;1.60;;
75774;SDS011;64505;51.458;7.556;2023-10-31T01:23:55;2.47;;;1.60;;
75774;SDS011;64505;51.458;7.556;2023-10-31T01:25:56;1.50;;;1.10;;
75774;SDS011;64505;51.458;7.556;2023-10-31T01:27:58;1.70;;;1.33;;
75774;SDS011;64505;51.458;7.556;2023-10-31T01:29:59;2.55;;;1.05;;
75774;SDS011;64505;51.458;7.556;2023-10-31T01:32:01;2.33;;;1.00;;
75774;SDS011;64505;51.458;7.556;2023-10-31T01:34:09;1.30;;;0.90;;
75774;SDS011;64505;51.458;7.556;2023-10-31T01:36:11;1.80;;;1.20;;
75774;SDS011;64505;51.458;7.556;2023-10-31T01:38:13;1.95;;;0.98;;
75774;SDS011;64505;51.458;7.556;2023-10-31T01:40:15;0.98;;;0.70;;
75774;SDS011;64505;51.458;7.556;2023-10-31T01:42:17;1.40;;;0.70;;
75774;SDS011;64505;51.458;7.556;2023-10-31T01:44:18;1.05;;;0.95;;
75774;SDS011;64505;51.458;7.556;2023-10-31T01:46:20;1.40;;;0.65;;
75774;SDS011;64505;51.458;7.556;2023-10-31T01:48:21;2.28;;;0.80;;
75774;SDS011;64505;51.458;7.556;2023-10-31T01:50:24;1.63;;;0.80;;
75774;SDS011;64505;51.458;7.556;2023-10-31T01:52:26;1.77;;;1.02;;
75774;SDS011;64505;51.458;7.556;2023-10-31T01:54:28;2.65;;;1.02;;
75774;SDS011;64505;51.458;7.556;2023-10-31T01:56:30;2.10;;;1.23;;
75774;SDS011;64505;51.458;7.556;2023-10-31T01:58:33;2.90;;;1.30;;
75774;SDS011;64505;51.458;7.556;2023-10-31T02:00:36;1.77;;;1.23;;
75774;SDS011;64505;51.458;7.556;2023-10-31T02:02:42;2.67;;;1.73;;
75774;SDS011;64505;51.458;7.556;2023-10-31T02:04:44;2.78;;;1.90;;
75774;SDS011;64505;51.458;7.556;2023-10-31T02:06:45;4.22;;;2.17;;
75774;SDS011;64505;51.458;7.556;2023-10-31T02:08:47;3.90;;;2.33;;
75774;SDS011;64505;51.458;7.556;2023-10-31T02:10:49;3.50;;;2.08;;
75774;SDS011;64505;51.458;7.556;2023-10-31T02:12:51;5.93;;;2.47;;
75774;SDS011;64505;51.458;7.556;2023-10-31T02:14:52;6.10;;;2.50;;
75774;SDS011;64505;51.458;7.556;2023-10-31T02:16:53;4.78;;;2.17;;
75774;SDS011;64505;51.458;7.556;2023-10-31T02:18:55;3.53;;;2.13;;
75774;SDS011;64505;51.458;7.556;2023-10-31T02:20:57;3.45;;;2.10;;
75774;SDS011;64505;51.458;7.556;2023-10-31T02:22:58;4.57;;;2.25;;
75774;SDS011;64505;51.458;7.556;2023-10-31T02:25:00;4.60;;;2.33;;
75774;SDS011;64505;51.458;7.556;2023-10-31T02:27:02;5.47;;;2.80;;
75774;SDS011;64505;51.458;7.556;2023-10-31T02:29:04;3.55;;;2.00;;
75774;SDS011;64505;51.458;7.556;2023-10-31T02:31:06;3.17;;;1.95;;
75774;SDS011;64505;51.458;7.556;2023-10-31T02:33:07;4.38;;;1.90;;
75774;SDS011;64505;51.458;7.556;2023-10-31T02:35:09;4.88;;;2.20;;
75774;SDS011;64505;51.458;7.556;2023-10-31T02:37:11;3.53;;;1.90;;
75774;SDS011;64505;51.458;7.556;2023-10-31T02:39:12;4.65;;;2.25;;
75774;SDS011;64505;51.458;7.556;2023-10-31T02:41:14;3.97;;;2.00;;
75774;SDS011;64505;51.458;7.556;2023-10-31T02:43:15;4.43;;;1.85;;
75774;SDS011;64505;51.458;7.556;2023-10-31T02:45:17;4.68;;;1.75;;
75774;SDS011;64505;51.458;7.556;2023-10-31T02:47:19;3.63;;;1.67;;
75774;SDS011;64505;51.458;7.556;2023-10-31T02:49:21;4.45;;;1.67;;
75774;SDS011;64505;51.458;7.556;2023-10-31T02:51:22;2.30;;;1.55;;
75774;SDS011;64505;51.458;7.556;2023-10-31T02:53:24;2.30;;;1.55;;
75774;SDS011;64505;51.458;7.556;2023-10-31T02:55:25;3.83;;;1.50;;
75774;SDS011;64505;51.458;7.556;2023-10-31T02:57:27;2.92;;;1.50;;
75774;SDS011;64505;51.458;7.556;2023-10-31T02:59:28;2.42;;;1.45;;
75774;SDS011;64505;51.458;7.556;2023-10-31T03:01:30;2.53;;;1.40;;
75774;SDS011;64505;51.458;7.556;2023-10-31T03:03:32;3.00;;;1.00;;
75774;SDS011;64505;51.458;7.556;2023-10-31T03:05:33;3.45;;;1.13;;
75774;SDS011;64505;51.458;7.556;2023-10-31T03:07:35;2.47;;;1.20;;
75774;SDS011;64505;51.458;7.556;2023-10-31T03:09:36;2.83;;;1.45;;
75774;SDS011;64505;51.458;7.556;2023-10-31T03:11:38;2.28;;;1.13;;
75774;SDS011;64505;51.458;7.556;2023-10-31T03:13:39;2.00;;;1.20;;
75774;SDS011;64505;51.458;7.556;2023-10-31T03:15:41;2.45;;;1.25;;
75774;SDS011;64505;51.458;7.556;2023-10-31T03:17:42;1.42;;;1.10;;
75774;SDS011;64505;51.458;7.556;2023-10-31T03:19:44;1.92;;;1.17;;
75774;SDS011;64505;51.458;7.556;2023-10-31T03:21:46;3.40;;;1.30;;
75774;SDS011;64505;51.458;7.556;2023-10-31T03:23:48;2.45;;;1.25;;
75774;SDS011;64505;51.458;7.556;2023-10-31T03:25:51;2.15;;;1.40;;
75774;SDS011;64505;51.458;7.556;2023-10-31T03:27:52;2.88;;;1.60;;
75774;SDS011;64505;51.458;7.556;2023-10-31T03:29:54;2.85;;;1.73;;
75774;SDS011;64505;51.458;7.556;2023-10-31T03:31:56;4.13;;;1.80;;
75774;SDS011;64505;51.458;7.556;2023-10-31T03:33:57;4.07;;;1.80;;
75774;SDS011;64505;51.458;7.556;2023-10-31T03:35:58;4.18;;;2.40;;
75774;SDS011;64505;51.458;7.556;2023-10-31T03:38:00;4.70;;;2.80;;
75774;SDS011;64505;51.458;7.556;2023-10-31T03:40:02;6.35;;;2.92;;
75774;SDS011;64505;51.458;7.556;2023-10-31T03:42:03;5.32;;;2.55;;
75774;SDS011;64505;51.458;7.556;2023-10-31T03:44:06;4.22;;;2.63;;
75774;SDS011;64505;51.458;7.556;2023-10-31T03:46:08;5.43;;;3.00;;
75774;SDS011;64505;51.458;7.556;2023-10-31T03:48:09;5.72;;;3.85;;
75774;SDS011;64505;51.458;7.556;2023-10-31T03:50:11;7.07;;;3.85;;
75774;SDS011;64505;51.458;7.556;2023-10-31T03:52:12;5.18;;;3.17;;
75774;SDS011;64505;51.458;7.556;2023-10-31T03:54:14;7.93;;;3.50;;
75774;SDS011;64505;51.458;7.556;2023-10-31T03:56:15;9.18;;;3.55;;
75774;SDS011;64505;51.458;7.556;2023-10-31T03:58:17;7.10;;;3.72;;
75774;SDS011;64505;51.458;7.556;2023-10-31T04:00:18;6.90;;;3.58;;
75774;SDS011;64505;51.458;7.556;2023-10-31T04:02:20;6.63;;;3.65;;
75774;SDS011;64505;51.458;7.556;2023-10-31T04:04:21;7.63;;;3.55;;
75774;SDS011;64505;51.458;7.556;2023-10-31T04:06:23;8.10;;;3.50;;
75774;SDS011;64505;51.458;7.556;2023-10-31T04:08:24;6.03;;;3.42;;
75774;SDS011;64505;51.458;7.556;2023-10-31T04:10:26;7.22;;;4.03;;
75774;SDS011;64505;51.458;7.556;2023-10-31T04:12:27;10.85;;;4.55;;
75774;SDS011;64505;51.458;7.556;2023-10-31T04:14:29;5.80;;;3.10;;
75774;SDS011;64505;51.458;7.556;2023-10-31T04:16:31;7.00;;;3.20;;
75774;SDS011;64505;51.458;7.556;2023-10-31T04:18:36;6.40;;;3.28;;
75774;SDS011;64505;51.458;7.556;2023-10-31T04:20:37;7.18;;;3.50;;
75774;SDS011;64505;51.458;7.556;2023-10-31T04:22:39;7.10;;;3.15;;
75774;SDS011;64505;51.458;7.556;2023-10-31T04:24:40;6.07;;;3.30;;
75774;SDS011;64505;51.458;7.556;2023-10-31T04:26:42;6.28;;;2.70;;
75774;SDS011;64505;51.458;7.556;2023-10-31T04:28:43;7.30;;;3.38;;
75774;SDS011;64505;51.458;7.556;2023-10-31T04:30:45;7.25;;;3.80;;
75774;SDS011;64505;51.458;7.556;2023-10-31T04:32:46;6.07;;;3.13;;
75774;SDS011;64505;51.458;7.556;2023-10-31T04:34:48;7.22;;;4.03;;
75774;SDS011;64505;51.458;7.556;2023-10-31T04:36:49;6.35;;;3.50;;
75774;SDS011;64505;51.458;7.556;2023-10-31T04:38:51;7.60;;;3.63;;
75774;SDS011;64505;51.458;7.556;2023-10-31T04:40:52;9.20;;;4.18;;
75774;SDS011;64505;51.458;7.556;2023-10-31T04:42:54;9.05;;;3.67;;
75774;SDS011;64505;51.458;7.556;2023-10-31T04:44:56;6.40;;;3.58;;
75774;SDS011;64505;51.458;7.556;2023-10-31T04:46:57;7.53;;;3.47;;
75774;SDS011;64505;51.458;7.556;2023-10-31T04:48:59;5.43;;;3.38;;
75774;SDS011;64505;51.458;7.556;2023-10-31T04:51:00;7.95;;;3.67;;
75774;SDS011;64505;51.458;7.556;2023-10-31T04:53:02;6.18;;;3.88;;
75774;SDS011;64505;51.458;7.556;2023-10-31T04:55:04;8.20;;;3.80;;
75774;SDS011;64505;51.458;7.556;2023-10-31T04:57:05;7.10;;;4.03;;
75774;SDS011;64505;51.458;7.556;2023-10-31T04:59:07;7.93;;;4.22;;
75774;SDS011;64505;51.458;7.556;2023-10-31T05:01:09;7.38;;;4.25;;
75774;SDS011;64505;51.458;7.556;2023-10-31T05:03:12;7.30;;;3.90;;
75774;SDS011;64505;51.458;7.556;2023-10-31T05:05:16;7.15;;;4.00;;
75774;SDS011;64505;51.458;7.556;2023-10-31T05:07:18;6.25;;;3.53;;
75774;SDS011;64505;51.458;7.556;2023-10-31T05:09:20;5.93;;;3.30;;
75774;SDS011;64505;51.458;7.556;2023-10-31T05:11:22;6.53;;;3.72;;
75774;SDS011;64505;51.458;7.556;2023-10-31T05:13:23;6.53;;;3.40;;
75774;SDS011;64505;51.458;7.556;2023-10-31T05:15:25;7.90;;;4.43;;
75774;SDS011;64505;51.458;7.556;2023-10-31T05:17:28;6.63;;;3.35;;
75774;SDS011;64505;51.458;7.556;2023-10-31T05:19:29;5.28;;;2.95;;
75774;SDS011;64505;51.458;7.556;2023-10-31T05:21:31;4.97;;;3.28;;
75774;SDS011;64505;51.458;7.556;2023-10-31T05:23:32;7.57;;;3.13;;
75774;SDS011;64505;51.458;7.556;2023-10-31T05:25:34;5.15;;;2.92;;
75774;SDS011;64505;51.458;7.556;2023-10-31T05:27:36;6.57;;;3.20;;
75774;SDS011;64505;51.458;7.556;2023-10-31T05:29:38;5.13;;;2.92;;
75774;SDS011;64505;51.458;7.556;2023-10-31T05:31:40;5.78;;;3.08;;
75774;SDS011;64505;51.458;7.556;2023-10-31T05:33:43;7.25;;;3.00;;
75774;SDS011;64505;51.458;7.556;2023-10-31T05:35:44;6.57;;;3.15;;
75774;SDS011;64505;51.458;7.556;2023-10-31T05:37:46;4.80;;;2.80;;
75774;SDS011;64505;51.458;7.556;2023-10-31T05:39:47;5.55;;;2.38;;
75774;SDS011;64505;51.458;7.556;2023-10-31T05:41:49;6.55;;;3.08;;
75774;SDS011;64505;51.458;7.556;2023-10-31T05:43:50;5.68;;;3.10;;
75774;SDS011;64505;51.458;7.556;2023-10-31T05:45:52;6.15;;;2.88;;
75774;SDS011;64505;51.458;7.556;2023-10-31T05:47:53;4.60;;;2.75;;
75774;SDS011;64505;51.458;7.556;2023-10-31T05:49:55;5.47;;;2.63;;
75774;SDS011;64505;51.458;7.556;2023-10-31T05:51:56;4.57;;;2.85;;
75774;SDS011;64505;51.458;7.556;2023-10-31T05:53:57;6.35;;;3.40;;
75774;SDS011;64505;51.458;7.556;2023-10-31T05:55:59;4.90;;;2.50;;
75774;SDS011;64505;51.458;7.556;2023-10-31T05:58:00;6.78;;;2.92;;
75774;SDS011;64505;51.458;7.556;2023-10-31T06:00:02;5.68;;;3.10;;
75774;SDS011;64505;51.458;7.556;2023-10-31T06:02:03;5.80;;;3.03;;
75774;SDS011;64505;51.458;7.556;2023-10-31T06:04:05;5.43;;;3.15;;
75774;SDS011;64505;51.458;7.556;2023-10-31T06:06:07;6.03;;;3.53;;
75774;SDS011;64505;51.458;7.556;2023-10-31T06:08:09;5.63;;;3.28;;
75774;SDS011;64505;51.458;7.556;2023-10-31T06:10:10;6.00;;;3.10;;
75774;SDS011;64505;51.458;7.556;2023-10-31T06:12:12;6.65;;;3.55;;
75774;SDS011;64505;51.458;7.556;2023-10-31T06:14:13;7.47;;;4.15;;
75774;SDS011;64505;51.458;7.556;2023-10-31T06:16:15;6.55;;;3.75;;
75774;SDS011;64505;51.458;7.556;2023-10-31T06:18:16;7.82;;;4.40;;
75774;SDS011;64505;51.458;7.556;2023-10-31T06:20:18;7.55;;;4.53;;
75774;SDS011;64505;51.458;7.556;2023-10-31T06:22:19;8.73;;;4.95;;
75774;SDS011;64505;51.458;7.556;2023-10-31T06:24:21;7.65;;;4.45;;
75774;SDS011;64505;51.458;7.556;2023-10-31T06:26:22;7.90;;;4.88;;
75774;SDS011;64505;51.458;7.556;2023-10-31T06:28:24;8.65;;;4.25;;
75774;SDS011;64505;51.458;7.556;2023-10-31T06:30:25;7.43;;;4.72;;
75774;SDS011;64505;51.458;7.556;2023-10-31T06:32:29;8.57;;;4.93;;
75774;SDS011;64505;51.458;7.556;2023-10-31T06:34:31;7.28;;;4.65;;
75774;SDS011;64505;51.458;7.556;2023-10-31T06:36:32;8.20;;;5.18;;
75774;SDS011;64505;51.458;7.556;2023-10-31T06:38:34;10.25;;;5.50;;
75774;SDS011;64505;51.458;7.556;2023-10-31T06:40:35;9.10;;;5.32;;
75774;SDS011;64505;51.458;7.556;2023-10-31T06:42:37;11.13;;;5.65;;
75774;SDS011;64505;51.458;7.556;2023-10-31T06:44:38;9.02;;;5.13;;
75774;SDS011;64505;51.458;7.556;2023-10-31T06:46:40;9.98;;;6.20;;
75774;SDS011;64505;51.458;7.556;2023-10-31T06:48:41;9.43;;;5.20;;
75774;SDS011;64505;51.458;7.556;2023-10-31T06:50:43;8.32;;;5.53;;
75774;SDS011;64505;51.458;7.556;2023-10-31T06:52:44;8.63;;;5.53;;
75774;SDS011;64505;51.458;7.556;2023-10-31T06:54:46;8.98;;;5.82;;
75774;SDS011;64505;51.458;7.556;2023-10-31T06:56:47;9.90;;;6.60;;
75774;SDS011;64505;51.458;7.556;2023-10-31T06:58:48;12.18;;;7.00;;
75774;SDS011;64505;51.458;7.556;2023-10-31T07:00:50;10.10;;;6.53;;
75774;SDS011;64505;51.458;7.556;2023-10-31T07:02:52;9.60;;;5.88;;
75774;SDS011;64505;51.458;7.556;2023-10-31T07:04:54;11.98;;;6.03;;
75774;SDS011;64505;51.458;7.556;2023-10-31T07:06:55;12.45;;;7.15;;
75774;SDS011;64505;51.458;7.556;2023-10-31T07:08:58;11.00;;;6.32;;
75774;SDS011;64505;51.458;7.556;2023-10-31T07:11:01;9.60;;;5.75;;
75774;SDS011;64505;51.458;7.556;2023-10-31T07:13:03;10.23;;;6.20;;
75774;SDS011;64505;51.458;7.556;2023-10-31T07:15:05;8.48;;;5.28;;
75774;SDS011;64505;51.458;7.556;2023-10-31T07:17:06;11.70;;;6.30;;
75774;SDS011;64505;51.458;7.556;2023-10-31T07:19:08;9.52;;;5.78;;
75774;SDS011;64505;51.458;7.556;2023-10-31T07:21:09;10.27;;;5.72;;
75774;SDS011;64505;51.458;7.556;2023-10-31T07:23:11;10.52;;;6.55;;
75774;SDS011;64505;51.458;7.556;2023-10-31T07:25:12;11.02;;;5.68;;
75774;SDS011;64505;51.458;7.556;2023-10-31T07:27:14;8.35;;;5.28;;
75774;SDS011;64505;51.458;7.556;2023-10-31T07:29:15;10.75;;;5.82;;
75774;SDS011;64505;51.458;7.556;2023-10-31T07:31:17;8.75;;;5.40;;
75774;SDS011;64505;51.458;7.556;2023-10-31T07:33:19;9.55;;;6.25;;
75774;SDS011;64505;51.458;7.556;2023-10-31T07:35:20;10.73;;;5.50;;
75774;SDS011;64505;51.458;7.556;2023-10-31T07:37:22;8.65;;;5.22;;
75774;SDS011;64505;51.458;7.556;2023-10-31T07:39:24;10.10;;;5.80;;
75774;SDS011;64505;51.458;7.556;2023-10-31T07:41:25;8.52;;;5.22;;
75774;SDS011;64505;51.458;7.556;2023-10-31T07:43:27;7.38;;;5.00;;
75774;SDS011;64505;51.458;7.556;2023-10-31T07:45:28;8.57;;;4.85;;
75774;SDS011;64505;51.458;7.556;2023-10-31T07:47:30;11.10;;;5.28;;
75774;SDS011;64505;51.458;7.556;2023-10-31T07:49:31;8.07;;;4.88;;
75774;SDS011;64505;51.458;7.556;2023-10-31T07:51:33;8.60;;;4.97;;
75774;SDS011;64505;51.458;7.556;2023-10-31T07:53:34;8.25;;;5.00;;
75774;SDS011;64505;51.458;7.556;2023-10-31T07:55:36;9.70;;;4.75;;
75774;SDS011;64505;51.458;7.556;2023-10-31T07:57:37;8.40;;;4.97;;
75774;SDS011;64505;51.458;7.556;2023-10-31T07:59:39;8.77;;;5.38;;
75774;SDS011;64505;51.458;7.556;2023-10-31T08:01:41;6.50;;;4.47;;
75774;SDS011;64505;51.458;7.556;2023-10-31T08:03:42;8.57;;;4.22;;
75774;SDS011;64505;51.458;7.556;2023-10-31T08:05:44;7.63;;;5.18;;
75774;SDS011;64505;51.458;7.556;2023-10-31T08:07:45;6.88;;;4.38;;
75774;SDS011;64505;51.458;7.556;2023-10-31T08:09:47;6.47;;;4.03;;
75774;SDS011;64505;51.458;7.556;2023-10-31T08:11:49;6.38;;;3.67;;
75774;SDS011;64505;51.458;7.556;2023-10-31T08:13:53;6.68;;;3.88;;
75774;SDS011;64505;51.458;7.556;2023-10-31T08:15:54;7.00;;;4.38;;
75774;SDS011;64505;51.458;7.556;2023-10-31T08:17:56;8.30;;;4.45;;
75774;SDS011;64505;51.458;7.556;2023-10-31T08:19:57;6.43;;;4.28;;
75774;SDS011;64505;51.458;7.556;2023-10-31T08:21:59;6.53;;;4.20;;
75774;SDS011;64505;51.458;7.556;2023-10-31T08:24:01;7.18;;;4.38;;
75774;SDS011;64505;51.458;7.556;2023-10-31T08:26:04;6.32;;;4.30;;
75774;SDS011;64505;51.458;7.556;2023-10-31T08:28:06;7.53;;;4.15;;
75774;SDS011;64505;51.458;7.556;2023-10-31T08:30:08;7.28;;;4.50;;
75774;SDS011;64505;51.458;7.556;2023-10-31T08:32:10;7.88;;;4.72;;
75774;SDS011;64505;51.458;7.556;2023-10-31T08:34:11;6.28;;;3.80;;
75774;SDS011;64505;51.458;7.556;2023-10-31T08:36:13;7.03;;;4.50;;
75774;SDS011;64505;51.458;7.556;2023-10-31T08:38:14;8.55;;;5.25;;
75774;SDS011;64505;51.458;7.556;2023-10-31T08:40:29;8.52;;;5.25;;
75774;SDS011;64505;51.458;7.556;2023-10-31T08:42:31;8.00;;;4.78;;
75774;SDS011;64505;51.458;7.556;2023-10-31T08:44:32;9.15;;;5.18;;
75774;SDS011;64505;51.458;7.556;2023-10-31T08:46:34;8.13;;;4.68;;
75774;SDS011;64505;51.458;7.556;2023-10-31T08:48:36;9.32;;;5.57;;
75774;SDS011;64505;51.458;7.556;2023-10-31T08:50:38;7.70;;;5.20;;
75774;SDS011;64505;51.458;7.556;2023-10-31T08:52:40;8.05;;;5.32;;
75774;SDS011;64505;51.458;7.556;2023-10-31T08:54:42;6.80;;;4.25;;
75774;SDS011;64505;51.458;7.556;2023-10-31T08:56:43;8.65;;;5.32;;
75774;SDS011;64505;51.458;7.556;2023-10-31T08:58:44;7.68;;;5.18;;
75774;SDS011;64505;51.458;7.556;2023-10-31T09:00:46;6.55;;;3.83;;
75774;SDS011;64505;51.458;7.556;2023-10-31T09:02:48;8.15;;;5.38;;
75774;SDS011;64505;51.458;7.556;2023-10-31T09:04:49;6.63;;;4.45;;
75774;SDS011;64505;51.458;7.556;2023-10-31T09:06:51;7.18;;;4.13;;
75774;SDS011;64505;51.458;7.556;2023-10-31T09:08:53;6.32;;;4.10;;
75774;SDS011;64505;51.458;7.556;2023-10-31T09:10:54;7.57;;;4.68;;
75774;SDS011;64505;51.458;7.556;2023-10-31T09:12:56;6.38;;;4.20;;
75774;SDS011;64505;51.458;7.556;2023-10-31T09:14:58;6.35;;;4.10;;
75774;SDS011;64505;51.458;7.556;2023-10-31T09:16:59;6.43;;;3.72;;
75774;SDS011;64505;51.458;7.556;2023-10-31T09:19:02;6.50;;;3.92;;
75774;SDS011;64505;51.458;7.556;2023-10-31T09:21:04;6.78;;;4.15;;
75774;SDS011;64505;51.458;7.556;2023-10-31T09:23:06;6.93;;;4.72;;
75774;SDS011;64505;51.458;7.556;2023-10-31T09:25:07;5.53;;;3.97;;
75774;SDS011;64505;51.458;7.556;2023-10-31T09:27:09;8.90;;;4.85;;
75774;SDS011;64505;51.458;7.556;2023-10-31T09:29:11;8.27;;;4.07;;
75774;SDS011;64505;51.458;7.556;2023-10-31T09:31:28;6.60;;;4.30;;
75774;SDS011;64505;51.458;7.556;2023-10-31T09:33:30;6.03;;;3.97;;
75774;SDS011;64505;51.458;7.556;2023-10-31T09:35:32;6.63;;;4.00;;
75774;SDS011;64505;51.458;7.556;2023-10-31T09:37:33;7.72;;;3.83;;
75774;SDS011;64505;51.458;7.556;2023-10-31T09:39:35;8.35;;;4.00;;
75774;SDS011;64505;51.458;7.556;2023-10-31T09:41:36;6.97;;;3.63;;
75774;SDS011;64505;51.458;7.556;2023-10-31T09:43:38;5.32;;;3.40;;
75774;SDS011;64505;51.458;7.556;2023-10-31T09:45:40;8.27;;;3.20;;
75774;SDS011;64505;51.458;7.556;2023-10-31T09:47:42;5.15;;;3.13;;
75774;SDS011;64505;51.458;7.556;2023-10-31T09:49:44;6.18;;;3.50;;
75774;SDS011;64505;51.458;7.556;2023-10-31T09:51:46;5.85;;;3.67;;
75774;SDS011;64505;51.458;7.556;2023-10-31T09:53:50;7.07;;;3.45;;
75774;SDS011;64505;51.458;7.556;2023-10-31T09:55:55;5.85;;;3.28;;
75774;SDS011;64505;51.458;7.556;2023-10-31T09:57:58;4.85;;;3.20;;
75774;SDS011;64505;51.458;7.556;2023-10-31T10:00:00;5.03;;;2.92;;
75774;SDS011;64505;51.458;7.556;2023-10-31T10:02:01;5.55;;;3.42;;
75774;SDS011;64505;51.458;7.556;2023-10-31T10:04:03;4.97;;;2.88;;
75774;SDS011;64505;51.458;7.556;2023-10-31T10:06:05;6.60;;;3.13;;
75774;SDS011;64505;51.458;7.556;2023-10-31T10:08:07;4.60;;;2.97;;
75774;SDS011;64505;51.458;7.556;2023-10-31T10:10:12;6.55;;;3.30;;
75774;SDS011;64505;51.458;7.556;2023-10-31T10:12:14;5.60;;;2.75;;
75774;SDS011;64505;51.458;7.556;2023-10-31T10:14:17;4.95;;;2.72;;
75774;SDS011;64505;51.458;7.556;2023-10-31T10:16:31;5.25;;;3.08;;
75774;SDS011;64505;51.458;7.556;2023-10-31T10:18:34;5.30;;;3.08;;
75774;SDS011;64505;51.458;7.556;2023-10-31T10:23:03;5.13;;;3.03;;
75774;SDS011;64505;51.458;7.556;2023-10-31T10:25:06;7.15;;;3.08;;
75774;SDS011;64505;51.458;7.556;2023-10-31T10:27:08;5.82;;;3.20;;
75774;SDS011;64505;51.458;7.556;2023-10-31T10:29:10;6.28;;;3.10;;
75774;SDS011;64505;51.458;7.556;2023-10-31T10:31:13;6.22;;;3.03;;
75774;SDS011;64505;51.458;7.556;2023-10-31T10:33:16;6.38;;;3.00;;
75774;SDS011;64505;51.458;7.556;2023-10-31T10:35:17;5.30;;;2.40;;
75774;SDS011;64505;51.458;7.556;2023-10-31T10:37:20;6.18;;;3.13;;
75774;SDS011;64505;51.458;7.556;2023-10-31T10:39:22;5.80;;;3.47;;
75774;SDS011;64505;51.458;7.556;2023-10-31T10:41:28;6.20;;;3.15;;
75774;SDS011;64505;51.458;7.556;2023-10-31T10:43:30;9.90;;;3.30;;
75774;SDS011;64505;51.458;7.556;2023-10-31T10:45:37;6.47;;;3.13;;
75774;SDS011;64505;51.458;7.556;2023-10-31T10:47:47;7.95;;;3.20;;
75774;SDS011;64505;51.458;7.556;2023-10-31T10:49:50;7.10;;;2.55;;
75774;SDS011;64505;51.458;7.556;2023-10-31T10:51:58;4.85;;;3.05;;
75774;SDS011;64505;51.458;7.556;2023-10-31T10:54:11;5.15;;;2.70;;
75774;SDS011;64505;51.458;7.556;2023-10-31T10:56:19;4.80;;;2.58;;
75774;SDS011;64505;51.458;7.556;2023-10-31T10:58:39;6.32;;;2.83;;
75774;SDS011;64505;51.458;7.556;2023-10-31T11:00:49;5.53;;;2.67;;
75774;SDS011;64505;51.458;7.556;2023-10-31T11:02:52;8.68;;;3.22;;
75774;SDS011;64505;51.458;7.556;2023-10-31T11:04:54;6.35;;;3.28;;
75774;SDS011;64505;51.458;7.556;2023-10-31T11:06:57;7.00;;;3.30;;
75774;SDS011;64505;51.458;7.556;2023-10-31T11:08:59;6.07;;;2.95;;
75774;SDS011;64505;51.458;7.556;2023-10-31T11:11:02;6.72;;;3.35;;
75774;SDS011;64505;51.458;7.556;2023-10-31T11:13:05;6.68;;;3.60;;
75774;SDS011;64505;51.458;7.556;2023-10-31T11:15:09;7.53;;;3.20;;
75774;SDS011;64505;51.458;7.556;2023-10-31T11:19:29;7.32;;;3.25;;
75774;SDS011;64505;51.458;7.556;2023-10-31T11:21:32;11.48;;;4.00;;
75774;SDS011;64505;51.458;7.556;2023-10-31T11:23:35;9.60;;;3.70;;
75774;SDS011;64505;51.458;7.556;2023-10-31T11:25:42;10.85;;;3.78;;
75774;SDS011;64505;51.458;7.556;2023-10-31T11:27:45;7.35;;;3.90;;
75774;SDS011;64505;51.458;7.556;2023-10-31T11:29:47;7.18;;;3.90;;
75774;SDS011;64505;51.458;7.556;2023-10-31T11:31:49;7.20;;;3.33;;
75774;SDS011;64505;51.458;7.556;2023-10-31T11:33:51;9.73;;;4.35;;
75774;SDS011;64505;51.458;7.556;2023-10-31T11:36:00;6.65;;;3.58;;
75774;SDS011;64505;51.458;7.556;2023-10-31T11:38:09;8.75;;;3.70;;
75774;SDS011;64505;51.458;7.556;2023-10-31T11:42:18;7.80;;;3.65;;
75774;SDS011;64505;51.458;7.556;2023-10-31T11:44:22;7.57;;;3.58;;
75774;SDS011;64505;51.458;7.556;2023-10-31T11:46:26;7.05;;;3.60;;
75774;SDS011;64505;51.458;7.556;2023-10-31T11:51:02;8.20;;;3.20;;
75774;SDS011;64505;51.458;7.556;2023-10-31T11:53:08;6.30;;;3.65;;
75774;SDS011;64505;51.458;7.556;2023-10-31T11:55:14;8.52;;;3.10;;
75774;SDS011;64505;51.458;7.556;2023-10-31T11:57:28;6.60;;;3.15;;
75774;SDS011;64505;51.458;7.556;2023-10-31T11:59:39;7.65;;;3.25;;
75774;SDS011;64505;51.458;7.556;2023-10-31T12:01:44;4.40;;;2.60;;
75774;SDS011;64505;51.458;7.556;2023-10-31T12:03:48;6.32;;;2.90;;
75774;SDS011;64505;51.458;7.556;2023-10-31T12:05:54;4.53;;;2.78;;
75774;SDS011;64505;51.458;7.556;2023-10-31T12:07:57;7.78;;;2.88;;
75774;SDS011;64505;51.458;7.556;2023-10-31T12:09:59;6.25;;;2.88;;
75774;SDS011;64505;51.458;7.556;2023-10-31T12:12:00;6.43;;;2.65;;
75774;SDS011;64505;51.458;7.556;2023-10-31T12:14:02;10.43;;;3.00;;
75774;SDS011;64505;51.458;7.556;2023-10-31T12:16:10;6.90;;;2.38;;
75774;SDS011;64505;51.458;7.556;2023-10-31T12:18:13;5.53;;;2.45;;
75774;SDS011;64505;51.458;7.556;2023-10-31T12:20:15;6.00;;;2.85;;
75774;SDS011;64505;51.458;7.556;2023-10-31T12:22:17;6.20;;;2.40;;
75774;SDS011;64505;51.458;7.556;2023-10-31T12:24:18;5.68;;;2.50;;
75774;SDS011;64505;51.458;7.556;2023-10-31T12:26:23;6.10;;;2.63;;